sensor_id;sensor_type;location;lat;lon;timestamp;temperature;humidity
36442;DHT22;64346;50.820;16.274;2022-12-18T00:01:37;-2.10;99.90
36442;DHT22;64346;50.820;16.274;2022-12-18T00:04:06;-2.10;99.90
36442;DHT22;64346;50.820;16.274;2022-12-18T00:06:34;-2.10;99.90
36442;DHT22;64346;50.820;16.274;2022-12-18T00:09:03;-2.00;99.90
36442;DHT22;64346;50.820;16.274;2022-12-18T00:11:33;-2.00;99.90
36442;DHT22;64346;50.820;16.274;2022-12-18T00:14:01;-2.00;99.90
36442;DHT22;64346;50.820;16.274;2022-12-18T00:16:29;-2.10;99.90
36442;DHT22;64346;50.820;16.274;2022-12-18T00:18:58;-2.10;99.90
36442;DHT22;64346;50.820;16.274;2022-12-18T00:21:29;-2.10;99.90
36442;DHT22;64346;50.820;16.274;2022-12-18T00:24:00;-2.20;99.90
36442;DHT22;64346;50.820;16.274;2022-12-18T00:26:30;-2.20;99.90
36442;DHT22;64346;50.820;16.274;2022-12-18T00:28:59;-2.20;99.90
36442;DHT22;64346;50.820;16.274;2022-12-18T00:31:30;-2.30;99.90
36442;DHT22;64346;50.820;16.274;2022-12-18T00:34:00;-2.30;99.90
36442;DHT22;64346;50.820;16.274;2022-12-18T00:36:30;-2.30;99.90
36442;DHT22;64346;50.820;16.274;2022-12-18T00:38:59;-2.40;99.90
36442;DHT22;64346;50.820;16.274;2022-12-18T00:41:27;-2.40;99.90
36442;DHT22;64346;50.820;16.274;2022-12-18T00:43:54;-2.50;99.90
36442;DHT22;64346;50.820;16.274;2022-12-18T00:46:21;-2.50;99.90
36442;DHT22;64346;50.820;16.274;2022-12-18T00:48:49;-2.60;99.90
36442;DHT22;64346;50.820;16.274;2022-12-18T00:51:16;-2.50;99.90
36442;DHT22;64346;50.820;16.274;2022-12-18T00:53:43;-2.50;99.90
36442;DHT22;64346;50.820;16.274;2022-12-18T00:56:11;-2.60;99.90
36442;DHT22;64346;50.820;16.274;2022-12-18T00:58:40;-2.60;99.90
36442;DHT22;64346;50.820;16.274;2022-12-18T01:01:08;-2.60;99.90
36442;DHT22;64346;50.820;16.274;2022-12-18T01:03:37;-2.60;99.90
36442;DHT22;64346;50.820;16.274;2022-12-18T01:06:08;-2.60;99.90
36442;DHT22;64346;50.820;16.274;2022-12-18T01:08:36;-2.60;99.90
36442;DHT22;64346;50.820;16.274;2022-12-18T01:11:16;-2.60;99.90
36442;DHT22;64346;50.820;16.274;2022-12-18T01:13:43;-2.60;99.90
36442;DHT22;64346;50.820;16.274;2022-12-18T01:16:12;-2.60;99.90
36442;DHT22;64346;50.820;16.274;2022-12-18T01:18:40;-2.50;99.90
36442;DHT22;64346;50.820;16.274;2022-12-18T01:21:09;-2.50;99.90
36442;DHT22;64346;50.820;16.274;2022-12-18T01:23:37;-2.50;99.90
36442;DHT22;64346;50.820;16.274;2022-12-18T01:26:15;-2.60;99.90
36442;DHT22;64346;50.820;16.274;2022-12-18T01:28:44;-2.60;99.90
36442;DHT22;64346;50.820;16.274;2022-12-18T01:31:23;-2.50;99.90
36442;DHT22;64346;50.820;16.274;2022-12-18T01:33:52;-2.50;99.90
36442;DHT22;64346;50.820;16.274;2022-12-18T01:36:27;-2.50;99.90
36442;DHT22;64346;50.820;16.274;2022-12-18T01:38:58;-2.50;99.90
36442;DHT22;64346;50.820;16.274;2022-12-18T01:41:28;-2.50;99.90
36442;DHT22;64346;50.820;16.274;2022-12-18T01:43:57;-2.60;99.90
36442;DHT22;64346;50.820;16.274;2022-12-18T01:46:25;-2.60;99.90
36442;DHT22;64346;50.820;16.274;2022-12-18T01:49:00;-2.60;99.90
36442;DHT22;64346;50.820;16.274;2022-12-18T01:51:30;-2.60;99.90
36442;DHT22;64346;50.820;16.274;2022-12-18T01:54:03;-2.60;99.90
36442;DHT22;64346;50.820;16.274;2022-12-18T01:56:30;-2.60;99.90
36442;DHT22;64346;50.820;16.274;2022-12-18T01:59:06;-2.80;99.90
36442;DHT22;64346;50.820;16.274;2022-12-18T02:01:37;-2.90;99.90
36442;DHT22;64346;50.820;16.274;2022-12-18T02:04:21;-2.90;99.90
36442;DHT22;64346;50.820;16.274;2022-12-18T02:07:03;-2.90;99.90
36442;DHT22;64346;50.820;16.274;2022-12-18T02:09:45;-2.90;99.90
36442;DHT22;64346;50.820;16.274;2022-12-18T02:12:19;-3.00;99.90
36442;DHT22;64346;50.820;16.274;2022-12-18T02:15:03;-3.00;99.90
36442;DHT22;64346;50.820;16.274;2022-12-18T02:22:53;-3.10;99.90
36442;DHT22;64346;50.820;16.274;2022-12-18T02:25:33;-3.00;99.90
36442;DHT22;64346;50.820;16.274;2022-12-18T02:28:09;-3.00;99.90
36442;DHT22;64346;50.820;16.274;2022-12-18T02:30:39;-3.00;99.90
36442;DHT22;64346;50.820;16.274;2022-12-18T02:33:08;-3.10;99.90
36442;DHT22;64346;50.820;16.274;2022-12-18T02:35:40;-3.10;99.90
36442;DHT22;64346;50.820;16.274;2022-12-18T02:38:08;-3.10;99.90
36442;DHT22;64346;50.820;16.274;2022-12-18T02:40:39;-3.00;99.90
36442;DHT22;64346;50.820;16.274;2022-12-18T02:43:13;-3.00;99.90
36442;DHT22;64346;50.820;16.274;2022-12-18T02:48:17;-3.00;99.90
36442;DHT22;64346;50.820;16.274;2022-12-18T02:59:07;-2.90;99.90
36442;DHT22;64346;50.820;16.274;2022-12-18T03:04:30;-2.90;99.90
36442;DHT22;64346;50.820;16.274;2022-12-18T03:07:03;-3.00;99.90
36442;DHT22;64346;50.820;16.274;2022-12-18T03:09:42;-3.00;99.90
36442;DHT22;64346;50.820;16.274;2022-12-18T03:12:34;-3.10;99.90
36442;DHT22;64346;50.820;16.274;2022-12-18T03:17:56;-3.20;99.90
36442;DHT22;64346;50.820;16.274;2022-12-18T03:20:26;-3.20;99.90
36442;DHT22;64346;50.820;16.274;2022-12-18T03:22:59;-3.30;99.90
36442;DHT22;64346;50.820;16.274;2022-12-18T03:25:30;-3.40;99.90
36442;DHT22;64346;50.820;16.274;2022-12-18T03:28:00;-3.40;99.90
36442;DHT22;64346;50.820;16.274;2022-12-18T03:30:31;-3.40;99.90
36442;DHT22;64346;50.820;16.274;2022-12-18T03:33:19;-3.40;99.90
36442;DHT22;64346;50.820;16.274;2022-12-18T03:35:50;-3.40;99.90
36442;DHT22;64346;50.820;16.274;2022-12-18T03:38:20;-3.40;99.90
36442;DHT22;64346;50.820;16.274;2022-12-18T03:49:28;-3.70;99.90
36442;DHT22;64346;50.820;16.274;2022-12-18T03:54:33;-3.80;99.90
36442;DHT22;64346;50.820;16.274;2022-12-18T03:57:07;-3.80;99.90
36442;DHT22;64346;50.820;16.274;2022-12-18T03:59:40;-3.90;99.90
36442;DHT22;64346;50.820;16.274;2022-12-18T04:02:08;-4.00;99.90
36442;DHT22;64346;50.820;16.274;2022-12-18T04:04:38;-4.10;99.90
36442;DHT22;64346;50.820;16.274;2022-12-18T04:07:09;-4.10;99.90
36442;DHT22;64346;50.820;16.274;2022-12-18T04:09:41;-4.10;99.90
36442;DHT22;64346;50.820;16.274;2022-12-18T04:12:09;-4.00;99.90
36442;DHT22;64346;50.820;16.274;2022-12-18T04:14:36;-4.00;99.90
36442;DHT22;64346;50.820;16.274;2022-12-18T04:17:03;-4.00;99.90
36442;DHT22;64346;50.820;16.274;2022-12-18T04:19:33;-3.90;99.90
36442;DHT22;64346;50.820;16.274;2022-12-18T04:22:02;-3.90;99.90
36442;DHT22;64346;50.820;16.274;2022-12-18T04:24:33;-4.10;99.90
36442;DHT22;64346;50.820;16.274;2022-12-18T04:27:01;-4.10;99.90
36442;DHT22;64346;50.820;16.274;2022-12-18T04:29:28;-4.10;99.90
36442;DHT22;64346;50.820;16.274;2022-12-18T04:31:59;-4.10;99.90
36442;DHT22;64346;50.820;16.274;2022-12-18T04:34:29;-4.10;99.90
36442;DHT22;64346;50.820;16.274;2022-12-18T04:37:02;-4.10;99.90
36442;DHT22;64346;50.820;16.274;2022-12-18T04:39:29;-4.20;99.90
36442;DHT22;64346;50.820;16.274;2022-12-18T04:41:57;-4.30;99.90
36442;DHT22;64346;50.820;16.274;2022-12-18T04:44:24;-4.40;99.90
36442;DHT22;64346;50.820;16.274;2022-12-18T04:46:51;-4.40;99.90
36442;DHT22;64346;50.820;16.274;2022-12-18T04:49:19;-4.50;99.90
36442;DHT22;64346;50.820;16.274;2022-12-18T04:51:48;-4.70;99.90
36442;DHT22;64346;50.820;16.274;2022-12-18T04:54:16;-5.00;99.90
36442;DHT22;64346;50.820;16.274;2022-12-18T04:56:43;-5.20;99.90
36442;DHT22;64346;50.820;16.274;2022-12-18T04:59:10;-5.40;99.90
36442;DHT22;64346;50.820;16.274;2022-12-18T05:01:37;-5.50;99.90
36442;DHT22;64346;50.820;16.274;2022-12-18T05:04:07;-5.50;99.90
36442;DHT22;64346;50.820;16.274;2022-12-18T05:06:34;-5.60;99.90
36442;DHT22;64346;50.820;16.274;2022-12-18T05:09:02;-5.70;99.90
36442;DHT22;64346;50.820;16.274;2022-12-18T05:11:29;-5.70;99.90
36442;DHT22;64346;50.820;16.274;2022-12-18T05:13:59;-5.70;99.90
36442;DHT22;64346;50.820;16.274;2022-12-18T05:16:26;-5.60;99.90
36442;DHT22;64346;50.820;16.274;2022-12-18T05:18:53;-5.70;99.90
36442;DHT22;64346;50.820;16.274;2022-12-18T05:21:21;-5.70;99.90
36442;DHT22;64346;50.820;16.274;2022-12-18T05:23:48;-5.70;99.90
36442;DHT22;64346;50.820;16.274;2022-12-18T05:26:17;-5.70;99.90
36442;DHT22;64346;50.820;16.274;2022-12-18T05:28:45;-5.70;99.90
36442;DHT22;64346;50.820;16.274;2022-12-18T05:31:15;-5.70;99.90
36442;DHT22;64346;50.820;16.274;2022-12-18T05:33:45;-5.70;99.90
36442;DHT22;64346;50.820;16.274;2022-12-18T05:36:12;-5.70;99.90
36442;DHT22;64346;50.820;16.274;2022-12-18T05:38:39;-5.70;99.90
36442;DHT22;64346;50.820;16.274;2022-12-18T05:41:08;-5.70;99.90
36442;DHT22;64346;50.820;16.274;2022-12-18T05:43:37;-5.80;99.90
36442;DHT22;64346;50.820;16.274;2022-12-18T05:46:07;-5.90;99.90
36442;DHT22;64346;50.820;16.274;2022-12-18T05:48:36;-6.00;99.90
36442;DHT22;64346;50.820;16.274;2022-12-18T05:51:10;-6.00;99.90
36442;DHT22;64346;50.820;16.274;2022-12-18T05:53:38;-6.10;99.90
36442;DHT22;64346;50.820;16.274;2022-12-18T05:56:10;-6.20;99.90
36442;DHT22;64346;50.820;16.274;2022-12-18T05:58:39;-6.20;99.90
36442;DHT22;64346;50.820;16.274;2022-12-18T06:01:12;-6.30;99.90
36442;DHT22;64346;50.820;16.274;2022-12-18T06:03:40;-6.30;99.90
36442;DHT22;64346;50.820;16.274;2022-12-18T06:06:24;-6.30;99.90
36442;DHT22;64346;50.820;16.274;2022-12-18T06:08:57;-6.40;99.90
36442;DHT22;64346;50.820;16.274;2022-12-18T06:11:26;-6.50;99.90
36442;DHT22;64346;50.820;16.274;2022-12-18T06:13:54;-6.60;99.90
36442;DHT22;64346;50.820;16.274;2022-12-18T06:16:26;-6.60;99.90
36442;DHT22;64346;50.820;16.274;2022-12-18T06:18:58;-6.60;99.90
36442;DHT22;64346;50.820;16.274;2022-12-18T06:21:26;-6.60;99.90
36442;DHT22;64346;50.820;16.274;2022-12-18T06:23:54;-6.60;99.90
36442;DHT22;64346;50.820;16.274;2022-12-18T06:26:21;-6.70;99.90
36442;DHT22;64346;50.820;16.274;2022-12-18T06:28:54;-6.60;99.90
36442;DHT22;64346;50.820;16.274;2022-12-18T06:31:21;-6.60;99.90
36442;DHT22;64346;50.820;16.274;2022-12-18T06:33:49;-6.60;99.90
36442;DHT22;64346;50.820;16.274;2022-12-18T06:36:17;-6.60;99.90
36442;DHT22;64346;50.820;16.274;2022-12-18T06:38:46;-6.60;99.90
36442;DHT22;64346;50.820;16.274;2022-12-18T06:41:18;-6.50;99.90
36442;DHT22;64346;50.820;16.274;2022-12-18T06:43:46;-6.50;99.90
36442;DHT22;64346;50.820;16.274;2022-12-18T06:46:13;-6.50;99.90
36442;DHT22;64346;50.820;16.274;2022-12-18T06:48:41;-6.50;99.90
36442;DHT22;64346;50.820;16.274;2022-12-18T06:51:08;-6.50;99.90
36442;DHT22;64346;50.820;16.274;2022-12-18T06:53:35;-6.50;99.90
36442;DHT22;64346;50.820;16.274;2022-12-18T06:56:07;-6.40;99.90
36442;DHT22;64346;50.820;16.274;2022-12-18T06:58:40;-6.40;99.90
36442;DHT22;64346;50.820;16.274;2022-12-18T07:01:10;-6.30;99.90
36442;DHT22;64346;50.820;16.274;2022-12-18T07:03:41;-6.30;99.90
36442;DHT22;64346;50.820;16.274;2022-12-18T07:06:18;-6.20;99.90
36442;DHT22;64346;50.820;16.274;2022-12-18T07:08:46;-6.00;99.90
36442;DHT22;64346;50.820;16.274;2022-12-18T07:11:17;-5.90;99.90
36442;DHT22;64346;50.820;16.274;2022-12-18T07:13:47;-5.80;99.90
36442;DHT22;64346;50.820;16.274;2022-12-18T07:16:18;-5.50;99.90
36442;DHT22;64346;50.820;16.274;2022-12-18T07:18:52;-4.70;99.90
36442;DHT22;64346;50.820;16.274;2022-12-18T07:21:21;-3.90;99.90
36442;DHT22;64346;50.820;16.274;2022-12-18T07:23:51;-3.00;99.90
36442;DHT22;64346;50.820;16.274;2022-12-18T07:26:22;-2.20;99.90
36442;DHT22;64346;50.820;16.274;2022-12-18T07:28:49;-1.60;99.90
36442;DHT22;64346;50.820;16.274;2022-12-18T07:31:19;-0.90;99.90
36442;DHT22;64346;50.820;16.274;2022-12-18T07:33:48;-0.10;99.90
36442;DHT22;64346;50.820;16.274;2022-12-18T07:36:24;0.60;99.90
36442;DHT22;64346;50.820;16.274;2022-12-18T07:38:52;1.10;99.90
36442;DHT22;64346;50.820;16.274;2022-12-18T07:41:22;1.50;99.90
36442;DHT22;64346;50.820;16.274;2022-12-18T07:43:51;1.90;99.80
36442;DHT22;64346;50.820;16.274;2022-12-18T07:46:21;2.30;98.20
36442;DHT22;64346;50.820;16.274;2022-12-18T07:48:48;2.90;96.10
36442;DHT22;64346;50.820;16.274;2022-12-18T07:51:17;3.60;95.00
36442;DHT22;64346;50.820;16.274;2022-12-18T07:53:45;4.70;92.40
36442;DHT22;64346;50.820;16.274;2022-12-18T07:56:15;5.90;88.80
36442;DHT22;64346;50.820;16.274;2022-12-18T07:58:59;7.30;80.80
36442;DHT22;64346;50.820;16.274;2022-12-18T08:01:27;9.00;72.90
36442;DHT22;64346;50.820;16.274;2022-12-18T08:03:54;10.40;67.00
36442;DHT22;64346;50.820;16.274;2022-12-18T08:06:24;11.60;61.80
36442;DHT22;64346;50.820;16.274;2022-12-18T08:08:55;12.70;57.80
36442;DHT22;64346;50.820;16.274;2022-12-18T08:11:25;13.50;55.70
36442;DHT22;64346;50.820;16.274;2022-12-18T08:13:55;13.90;53.20
36442;DHT22;64346;50.820;16.274;2022-12-18T08:16:28;14.80;51.50
36442;DHT22;64346;50.820;16.274;2022-12-18T08:18:56;16.00;49.80
36442;DHT22;64346;50.820;16.274;2022-12-18T08:21:25;17.00;47.10
36442;DHT22;64346;50.820;16.274;2022-12-18T08:23:55;17.90;46.20
36442;DHT22;64346;50.820;16.274;2022-12-18T08:26:24;18.60;44.30
36442;DHT22;64346;50.820;16.274;2022-12-18T08:28:55;19.20;43.00
36442;DHT22;64346;50.820;16.274;2022-12-18T08:31:23;19.80;42.10
36442;DHT22;64346;50.820;16.274;2022-12-18T08:33:54;20.30;41.30
36442;DHT22;64346;50.820;16.274;2022-12-18T08:36:23;20.70;40.30
36442;DHT22;64346;50.820;16.274;2022-12-18T08:38:51;21.00;39.80
36442;DHT22;64346;50.820;16.274;2022-12-18T08:41:19;21.40;39.30
36442;DHT22;64346;50.820;16.274;2022-12-18T08:43:47;21.60;38.50
36442;DHT22;64346;50.820;16.274;2022-12-18T08:46:17;21.70;38.40
36442;DHT22;64346;50.820;16.274;2022-12-18T08:48:45;21.70;38.50
36442;DHT22;64346;50.820;16.274;2022-12-18T08:51:13;21.40;37.90
36442;DHT22;64346;50.820;16.274;2022-12-18T08:53:42;21.60;38.00
36442;DHT22;64346;50.820;16.274;2022-12-18T08:56:13;21.50;38.00
36442;DHT22;64346;50.820;16.274;2022-12-18T08:58:41;21.40;37.80
36442;DHT22;64346;50.820;16.274;2022-12-18T09:01:12;21.60;38.50
36442;DHT22;64346;50.820;16.274;2022-12-18T09:03:39;21.70;37.40
36442;DHT22;64346;50.820;16.274;2022-12-18T09:06:08;21.60;37.30
36442;DHT22;64346;50.820;16.274;2022-12-18T09:08:35;21.40;37.40
36442;DHT22;64346;50.820;16.274;2022-12-18T09:11:03;21.50;36.80
36442;DHT22;64346;50.820;16.274;2022-12-18T09:13:32;21.60;37.30
36442;DHT22;64346;50.820;16.274;2022-12-18T09:16:02;21.40;37.30
36442;DHT22;64346;50.820;16.274;2022-12-18T09:18:30;22.30;37.10
36442;DHT22;64346;50.820;16.274;2022-12-18T09:20:57;23.10;36.60
36442;DHT22;64346;50.820;16.274;2022-12-18T09:23:24;23.80;36.30
36442;DHT22;64346;50.820;16.274;2022-12-18T09:25:52;24.30;36.40
36442;DHT22;64346;50.820;16.274;2022-12-18T09:28:28;25.00;35.30
36442;DHT22;64346;50.820;16.274;2022-12-18T09:30:55;25.40;34.60
36442;DHT22;64346;50.820;16.274;2022-12-18T09:33:23;25.20;34.30
36442;DHT22;64346;50.820;16.274;2022-12-18T09:35:50;25.50;34.40
36442;DHT22;64346;50.820;16.274;2022-12-18T09:38:19;25.60;34.40
36442;DHT22;64346;50.820;16.274;2022-12-18T09:40:52;26.10;34.30
36442;DHT22;64346;50.820;16.274;2022-12-18T09:43:28;26.30;33.80
36442;DHT22;64346;50.820;16.274;2022-12-18T09:46:03;25.90;33.50
36442;DHT22;64346;50.820;16.274;2022-12-18T09:48:35;25.40;33.90
36442;DHT22;64346;50.820;16.274;2022-12-18T09:51:19;25.80;33.80
36442;DHT22;64346;50.820;16.274;2022-12-18T09:53:56;26.30;33.40
36442;DHT22;64346;50.820;16.274;2022-12-18T09:56:28;25.50;33.20
36442;DHT22;64346;50.820;16.274;2022-12-18T09:59:00;25.50;33.50
36442;DHT22;64346;50.820;16.274;2022-12-18T10:01:29;25.70;33.10
36442;DHT22;64346;50.820;16.274;2022-12-18T10:04:09;24.70;33.40
36442;DHT22;64346;50.820;16.274;2022-12-18T10:06:52;25.60;33.50
36442;DHT22;64346;50.820;16.274;2022-12-18T10:09:42;26.70;33.20
36442;DHT22;64346;50.820;16.274;2022-12-18T10:15:02;26.80;32.50
36442;DHT22;64346;50.820;16.274;2022-12-18T10:17:55;26.40;32.70
36442;DHT22;64346;50.820;16.274;2022-12-18T10:23:08;26.40;32.90
36442;DHT22;64346;50.820;16.274;2022-12-18T10:28:21;26.60;32.50
36442;DHT22;64346;50.820;16.274;2022-12-18T10:30:53;27.30;32.40
36442;DHT22;64346;50.820;16.274;2022-12-18T10:33:30;27.40;31.20
36442;DHT22;64346;50.820;16.274;2022-12-18T10:35:59;26.50;31.60
36442;DHT22;64346;50.820;16.274;2022-12-18T10:38:30;25.90;31.90
36442;DHT22;64346;50.820;16.274;2022-12-18T10:43:37;25.70;32.10
36442;DHT22;64346;50.820;16.274;2022-12-18T10:53:59;27.30;31.90
36442;DHT22;64346;50.820;16.274;2022-12-18T10:56:30;26.10;32.10
36442;DHT22;64346;50.820;16.274;2022-12-18T10:59:04;26.50;32.30
36442;DHT22;64346;50.820;16.274;2022-12-18T11:01:53;26.60;32.20
36442;DHT22;64346;50.820;16.274;2022-12-18T11:07:07;27.40;31.90
36442;DHT22;64346;50.820;16.274;2022-12-18T11:09:36;27.60;31.80
36442;DHT22;64346;50.820;16.274;2022-12-18T11:12:18;27.70;31.60
36442;DHT22;64346;50.820;16.274;2022-12-18T11:14:47;28.00;31.50
36442;DHT22;64346;50.820;16.274;2022-12-18T11:17:20;27.30;31.40
36442;DHT22;64346;50.820;16.274;2022-12-18T11:19:56;24.20;32.40
36442;DHT22;64346;50.820;16.274;2022-12-18T11:22:29;20.60;35.10
36442;DHT22;64346;50.820;16.274;2022-12-18T11:28:33;14.80;40.70
36442;DHT22;64346;50.820;16.274;2022-12-18T11:36:59;8.70;49.70
36442;DHT22;64346;50.820;16.274;2022-12-18T11:39:41;7.10;52.80
36442;DHT22;64346;50.820;16.274;2022-12-18T11:42:21;6.00;55.00
36442;DHT22;64346;50.820;16.274;2022-12-18T11:44:59;5.00;57.80
36442;DHT22;64346;50.820;16.274;2022-12-18T11:47:48;4.20;59.70
36442;DHT22;64346;50.820;16.274;2022-12-18T11:52:55;2.80;63.20
36442;DHT22;64346;50.820;16.274;2022-12-18T11:58:43;2.00;64.90
36442;DHT22;64346;50.820;16.274;2022-12-18T12:01:23;1.60;66.70
36442;DHT22;64346;50.820;16.274;2022-12-18T12:16:57;1.60;70.20
36442;DHT22;64346;50.820;16.274;2022-12-18T12:19:48;1.60;70.30
36442;DHT22;64346;50.820;16.274;2022-12-18T12:38:54;1.00;75.40
36442;DHT22;64346;50.820;16.274;2022-12-18T12:41:30;0.90;75.60
36442;DHT22;64346;50.820;16.274;2022-12-18T12:44:04;0.90;76.10
36442;DHT22;64346;50.820;16.274;2022-12-18T12:46:39;0.90;76.50
36442;DHT22;64346;50.820;16.274;2022-12-18T12:49:09;0.90;76.90
36442;DHT22;64346;50.820;16.274;2022-12-18T12:51:41;1.00;77.40
36442;DHT22;64346;50.820;16.274;2022-12-18T12:54:19;0.90;77.40
36442;DHT22;64346;50.820;16.274;2022-12-18T12:56:50;0.80;78.10
36442;DHT22;64346;50.820;16.274;2022-12-18T13:04:49;0.30;81.80
36442;DHT22;64346;50.820;16.274;2022-12-18T13:13:12;0.10;86.20
36442;DHT22;64346;50.820;16.274;2022-12-18T13:18:21;-0.30;90.20
36442;DHT22;64346;50.820;16.274;2022-12-18T13:23:35;-0.50;92.50
36442;DHT22;64346;50.820;16.274;2022-12-18T13:34:18;-0.50;95.70
36442;DHT22;64346;50.820;16.274;2022-12-18T13:39:55;-0.50;96.00
36442;DHT22;64346;50.820;16.274;2022-12-18T13:44:50;-0.50;96.20
36442;DHT22;64346;50.820;16.274;2022-12-18T13:47:38;-0.60;96.20
36442;DHT22;64346;50.820;16.274;2022-12-18T13:50:31;-0.60;96.90
36442;DHT22;64346;50.820;16.274;2022-12-18T13:53:05;-0.60;97.70
36442;DHT22;64346;50.820;16.274;2022-12-18T13:55:35;-0.60;97.30
36442;DHT22;64346;50.820;16.274;2022-12-18T13:58:05;-0.70;97.10
36442;DHT22;64346;50.820;16.274;2022-12-18T14:00:33;-0.70;97.30
36442;DHT22;64346;50.820;16.274;2022-12-18T14:03:01;-0.80;97.80
36442;DHT22;64346;50.820;16.274;2022-12-18T14:05:31;-0.80;98.10
36442;DHT22;64346;50.820;16.274;2022-12-18T14:08:10;-0.80;98.00
36442;DHT22;64346;50.820;16.274;2022-12-18T14:10:46;-0.90;98.20
36442;DHT22;64346;50.820;16.274;2022-12-18T14:13:36;-1.00;98.30
36442;DHT22;64346;50.820;16.274;2022-12-18T14:16:06;-1.20;98.80
36442;DHT22;64346;50.820;16.274;2022-12-18T14:18:48;-1.20;99.90
36442;DHT22;64346;50.820;16.274;2022-12-18T14:21:26;-1.30;99.90
36442;DHT22;64346;50.820;16.274;2022-12-18T14:26:39;-1.40;99.90
36442;DHT22;64346;50.820;16.274;2022-12-18T14:29:26;-1.40;99.90
36442;DHT22;64346;50.820;16.274;2022-12-18T14:34:43;-1.60;99.90
36442;DHT22;64346;50.820;16.274;2022-12-18T14:37:12;-1.70;99.90
36442;DHT22;64346;50.820;16.274;2022-12-18T14:39:40;-1.80;99.90
36442;DHT22;64346;50.820;16.274;2022-12-18T14:42:18;-1.90;99.90
36442;DHT22;64346;50.820;16.274;2022-12-18T14:44:46;-2.10;99.90
36442;DHT22;64346;50.820;16.274;2022-12-18T14:47:33;-2.20;99.90
36442;DHT22;64346;50.820;16.274;2022-12-18T14:50:04;-2.30;99.90
36442;DHT22;64346;50.820;16.274;2022-12-18T14:52:38;-2.40;99.90
36442;DHT22;64346;50.820;16.274;2022-12-18T14:55:16;-2.50;99.90
36442;DHT22;64346;50.820;16.274;2022-12-18T14:57:45;-2.50;99.90
36442;DHT22;64346;50.820;16.274;2022-12-18T15:00:22;-2.60;99.90
36442;DHT22;64346;50.820;16.274;2022-12-18T15:02:54;-2.70;99.90
36442;DHT22;64346;50.820;16.274;2022-12-18T15:05:30;-2.80;99.90
36442;DHT22;64346;50.820;16.274;2022-12-18T15:08:01;-2.90;99.90
36442;DHT22;64346;50.820;16.274;2022-12-18T15:10:32;-3.00;99.90
36442;DHT22;64346;50.820;16.274;2022-12-18T15:20:55;-3.10;99.90
36442;DHT22;64346;50.820;16.274;2022-12-18T15:26:10;-3.20;99.90
36442;DHT22;64346;50.820;16.274;2022-12-18T15:36:15;-3.40;99.90
36442;DHT22;64346;50.820;16.274;2022-12-18T15:38:50;-3.50;99.90
36442;DHT22;64346;50.820;16.274;2022-12-18T15:41:19;-3.50;99.90
36442;DHT22;64346;50.820;16.274;2022-12-18T15:43:53;-3.60;99.90
36442;DHT22;64346;50.820;16.274;2022-12-18T15:46:24;-3.70;99.90
36442;DHT22;64346;50.820;16.274;2022-12-18T15:48:54;-3.60;99.90
36442;DHT22;64346;50.820;16.274;2022-12-18T15:54:00;-3.40;99.90
36442;DHT22;64346;50.820;16.274;2022-12-18T15:56:28;-3.40;99.90
36442;DHT22;64346;50.820;16.274;2022-12-18T15:58:58;-3.40;99.90
36442;DHT22;64346;50.820;16.274;2022-12-18T16:01:28;-3.30;99.90
36442;DHT22;64346;50.820;16.274;2022-12-18T16:03:56;-3.30;99.90
36442;DHT22;64346;50.820;16.274;2022-12-18T16:06:24;-3.30;99.90
36442;DHT22;64346;50.820;16.274;2022-12-18T16:08:53;-3.20;99.90
36442;DHT22;64346;50.820;16.274;2022-12-18T16:11:27;-3.20;99.90
36442;DHT22;64346;50.820;16.274;2022-12-18T16:13:55;-3.10;99.90
36442;DHT22;64346;50.820;16.274;2022-12-18T16:16:23;-3.10;99.90
36442;DHT22;64346;50.820;16.274;2022-12-18T16:18:51;-3.10;99.90
36442;DHT22;64346;50.820;16.274;2022-12-18T16:21:19;-3.20;99.90
36442;DHT22;64346;50.820;16.274;2022-12-18T16:23:47;-3.20;99.90
36442;DHT22;64346;50.820;16.274;2022-12-18T16:26:14;-3.30;99.90
36442;DHT22;64346;50.820;16.274;2022-12-18T16:28:42;-3.40;99.90
36442;DHT22;64346;50.820;16.274;2022-12-18T16:31:14;-3.40;99.90
36442;DHT22;64346;50.820;16.274;2022-12-18T16:33:42;-3.40;99.90
36442;DHT22;64346;50.820;16.274;2022-12-18T16:36:13;-3.40;99.90
36442;DHT22;64346;50.820;16.274;2022-12-18T16:38:40;-3.50;99.90
36442;DHT22;64346;50.820;16.274;2022-12-18T16:41:18;-3.60;99.90
36442;DHT22;64346;50.820;16.274;2022-12-18T16:43:46;-3.70;99.90
36442;DHT22;64346;50.820;16.274;2022-12-18T16:46:21;-3.70;99.90
36442;DHT22;64346;50.820;16.274;2022-12-18T16:48:48;-3.70;99.90
36442;DHT22;64346;50.820;16.274;2022-12-18T16:51:18;-3.70;99.90
36442;DHT22;64346;50.820;16.274;2022-12-18T16:53:45;-3.80;99.90
36442;DHT22;64346;50.820;16.274;2022-12-18T16:56:15;-3.80;99.90
36442;DHT22;64346;50.820;16.274;2022-12-18T16:58:43;-3.80;99.90
36442;DHT22;64346;50.820;16.274;2022-12-18T17:01:13;-3.90;99.90
36442;DHT22;64346;50.820;16.274;2022-12-18T17:03:41;-3.80;99.90
36442;DHT22;64346;50.820;16.274;2022-12-18T17:06:12;-3.80;99.90
36442;DHT22;64346;50.820;16.274;2022-12-18T17:08:40;-3.90;99.90
36442;DHT22;64346;50.820;16.274;2022-12-18T17:11:08;-3.90;99.90
36442;DHT22;64346;50.820;16.274;2022-12-18T17:13:35;-3.90;99.90
36442;DHT22;64346;50.820;16.274;2022-12-18T17:16:06;-3.90;99.90
36442;DHT22;64346;50.820;16.274;2022-12-18T17:18:34;-4.00;99.90
36442;DHT22;64346;50.820;16.274;2022-12-18T17:21:04;-4.00;99.90
36442;DHT22;64346;50.820;16.274;2022-12-18T17:23:32;-3.90;99.90
36442;DHT22;64346;50.820;16.274;2022-12-18T17:26:00;-4.00;99.90
36442;DHT22;64346;50.820;16.274;2022-12-18T17:28:30;-4.00;99.90
36442;DHT22;64346;50.820;16.274;2022-12-18T17:30:57;-4.10;99.90
36442;DHT22;64346;50.820;16.274;2022-12-18T17:33:26;-4.10;99.90
36442;DHT22;64346;50.820;16.274;2022-12-18T17:35:57;-4.10;99.90
36442;DHT22;64346;50.820;16.274;2022-12-18T17:38:25;-4.10;99.90
36442;DHT22;64346;50.820;16.274;2022-12-18T17:40:52;-4.10;99.90
36442;DHT22;64346;50.820;16.274;2022-12-18T17:43:22;-4.10;99.90
36442;DHT22;64346;50.820;16.274;2022-12-18T17:45:50;-4.10;99.90
36442;DHT22;64346;50.820;16.274;2022-12-18T17:48:17;-4.10;99.90
36442;DHT22;64346;50.820;16.274;2022-12-18T17:50:48;-4.10;99.90
36442;DHT22;64346;50.820;16.274;2022-12-18T17:53:18;-4.10;99.90
36442;DHT22;64346;50.820;16.274;2022-12-18T17:55:58;-4.10;99.90
36442;DHT22;64346;50.820;16.274;2022-12-18T17:58:27;-4.10;99.90
36442;DHT22;64346;50.820;16.274;2022-12-18T18:00:55;-4.10;99.90
36442;DHT22;64346;50.820;16.274;2022-12-18T18:03:22;-4.10;99.90
36442;DHT22;64346;50.820;16.274;2022-12-18T18:05:59;-4.00;99.90
36442;DHT22;64346;50.820;16.274;2022-12-18T18:08:28;-4.10;99.90
36442;DHT22;64346;50.820;16.274;2022-12-18T18:10:55;-4.10;99.90
36442;DHT22;64346;50.820;16.274;2022-12-18T18:13:25;-4.00;99.90
36442;DHT22;64346;50.820;16.274;2022-12-18T18:15:59;-3.90;99.90
36442;DHT22;64346;50.820;16.274;2022-12-18T18:18:27;-4.00;99.90